CheckWX is a tool to help pilots better visualize weather data.  It is not intended as a substitute for an official pre-flight weather briefing.

07:39:15 UTC

PAKU METAR
Ugnu-Kuparuk Airport
Kuparuk, Alaska, USA
Current

5 hours ago

PAKU 310245Z 13008KT 10SM R06/P6000FT BKN230 M15/M21 A3023 RMK LAST
Observed
Mar-31 @ 02:45 UTC
Wind
  • 130° at 8 KTS
Visibility
10 SM
Flight Rules
VFR
Cloud Levels
  • Broken at 23,000' AGL
Temperature
-15°C / 5°F
Dewpoint
-21°C / -6°F
Humidity
60%
Altimeter
30.23" Hg
Pressure
1023.72 hPa
Previous

6 hours ago

PAKU 310145Z 16007KT 10SM R06/P6000FT BKN230 M15/M21 A3023
Observed
Mar-31 @ 01:45 UTC
Wind
  • 160° at 7 KTS
Visibility
10 SM
Flight Rules
VFR
Cloud Levels
  • Broken at 23,000' AGL
Temperature
-15°C / 5°F
Dewpoint
-21°C / -6°F
Humidity
60%
Altimeter
30.23" Hg
Pressure
1023.72 hPa
Previous

7 hours ago

PAKU 310045Z 14005KT 10SM R06/P6000FT BKN230 M15/M21 A3025
Observed
Mar-31 @ 00:45 UTC
Wind
  • 140° at 5 KTS
Visibility
10 SM
Flight Rules
VFR
Cloud Levels
  • Broken at 23,000' AGL
Temperature
-15°C / 5°F
Dewpoint
-21°C / -6°F
Humidity
60%
Altimeter
30.25" Hg
Pressure
1024.42 hPa